Time;durP1;ratioP1;P1;durP2;ratioP2;P2;SDS_P1;SDS_P2;PMS_P1;PMS_P2;Temp;Humidity;BMP_temperature;BMP_pressure;BME280_temperature;BME280_humidity;BME280_pressure;Samples;Min_cycle;Max_cycle;Signal;HPM_P1;HPM_P2
2021/10/03 00:01:05;;;;;;;4.65;3.00;;;15.30;99.90;;;;;;5072531;28;20120;-68
2021/10/03 00:03:31;;;;;;;5.05;2.83;;;15.30;99.90;;;;;;5089244;28;20131;-67
2021/10/03 00:05:59;;;;;;;4.57;3.03;;;15.40;99.90;;;;;;5063948;28;20127;-67
2021/10/03 00:08:26;;;;;;;3.65;2.20;;;15.40;99.90;;;;;;5083613;28;20044;-67
2021/10/03 00:10:54;;;;;;;2.80;2.33;;;15.40;99.90;;;;;;5083807;28;20120;-67
2021/10/03 00:13:23;;;;;;;3.38;1.92;;;15.50;99.90;;;;;;5071013;28;20036;-67
2021/10/03 00:15:48;;;;;;;2.50;1.70;;;15.50;99.90;;;;;;5088059;28;20038;-67
2021/10/03 00:18:14;;;;;;;2.60;1.95;;;15.50;99.90;;;;;;5068925;28;20090;-68
2021/10/03 00:20:41;;;;;;;3.55;1.52;;;15.50;99.90;;;;;;5080362;28;20119;-68
2021/10/03 00:23:06;;;;;;;3.35;1.67;;;15.60;99.90;;;;;;5071663;28;20530;-67
2021/10/03 00:25:33;;;;;;;2.45;1.45;;;15.60;99.90;;;;;;5060251;28;20040;-67
2021/10/03 00:28:00;;;;;;;2.25;1.13;;;15.60;99.90;;;;;;5080901;28;20056;-68
2021/10/03 00:30:27;;;;;;;2.78;1.33;;;15.60;99.90;;;;;;5073263;28;20440;-68
2021/10/03 00:32:52;;;;;;;2.85;1.00;;;15.60;99.90;;;;;;5060739;28;20048;-68
2021/10/03 00:35:19;;;;;;;1.67;1.02;;;15.70;99.90;;;;;;5047610;28;20492;-68
2021/10/03 00:37:44;;;;;;;1.02;0.90;;;15.70;99.90;;;;;;5056083;28;20037;-68
2021/10/03 00:40:12;;;;;;;1.38;0.95;;;15.80;99.90;;;;;;5069477;28;20369;-68
2021/10/03 00:42:39;;;;;;;1.50;0.98;;;15.80;99.90;;;;;;5071426;28;20059;-68
2021/10/03 00:45:07;;;;;;;2.95;1.50;;;15.80;99.90;;;;;;5051627;28;20044;-68
2021/10/03 00:47:33;;;;;;;4.28;0.95;;;15.80;99.90;;;;;;5072217;28;20052;-68
2021/10/03 00:49:59;;;;;;;3.50;0.82;;;15.90;99.90;;;;;;5075711;28;20512;-68
2021/10/03 00:52:24;;;;;;;1.27;0.75;;;15.90;99.90;;;;;;5062070;28;20049;-68
2021/10/03 00:54:51;;;;;;;1.85;0.80;;;15.90;99.90;;;;;;5037551;28;20032;-68
2021/10/03 00:57:17;;;;;;;1.20;0.60;;;15.90;99.90;;;;;;5072871;28;20075;-68
2021/10/03 00:59:43;;;;;;;1.30;0.80;;;15.90;99.90;;;;;;5071467;28;20048;-68
2021/10/03 01:02:08;;;;;;;1.90;0.70;;;16.00;99.90;;;;;;5103303;28;20515;-68
2021/10/03 01:04:34;;;;;;;1.83;0.70;;;16.00;99.90;;;;;;5053268;28;20036;-68
2021/10/03 01:07:00;;;;;;;3.40;0.93;;;16.00;99.90;;;;;;5062407;28;20122;-68
2021/10/03 01:09:26;;;;;;;1.85;0.90;;;16.00;99.90;;;;;;5075379;28;20567;-67
2021/10/03 01:11:52;;;;;;;1.60;0.95;;;16.00;99.90;;;;;;5068118;28;20504;-68
2021/10/03 01:14:19;;;;;;;1.77;0.98;;;16.00;99.90;;;;;;5089301;28;20165;-67
2021/10/03 01:16:46;;;;;;;2.72;0.80;;;16.00;99.90;;;;;;5070590;28;20024;-67
2021/10/03 01:19:12;;;;;;;1.88;0.90;;;16.00;99.90;;;;;;5078633;28;20381;-67
2021/10/03 01:21:38;;;;;;;2.13;0.70;;;16.00;99.90;;;;;;5070926;28;20043;-68
2021/10/03 01:24:04;;;;;;;1.88;0.93;;;16.00;99.90;;;;;;5091697;28;20400;-68
2021/10/03 01:26:30;;;;;;;3.15;1.08;;;16.00;99.90;;;;;;5074336;28;20499;-67
2021/10/03 01:28:57;;;;;;;1.52;0.98;;;16.00;99.90;;;;;;5082706;28;20042;-67
2021/10/03 01:31:30;;;;;;;1.30;1.00;;;16.00;99.90;;;;;;5074219;28;20056;-67
2021/10/03 01:33:57;;;;;;;2.22;1.05;;;16.00;99.90;;;;;;5057717;28;21381;-67
2021/10/03 01:36:23;;;;;;;2.30;1.02;;;16.00;99.90;;;;;;5068882;28;20028;-67
2021/10/03 01:38:49;;;;;;;2.22;0.90;;;16.00;99.90;;;;;;5080138;28;20455;-67
2021/10/03 01:41:16;;;;;;;3.85;1.05;;;16.00;99.90;;;;;;5074831;28;20049;-67
2021/10/03 01:43:42;;;;;;;2.60;0.90;;;16.00;99.90;;;;;;5087382;28;20052;-67
2021/10/03 01:46:07;;;;;;;2.25;0.98;;;16.00;99.90;;;;;;5068486;28;20059;-67
2021/10/03 01:48:34;;;;;;;2.08;1.00;;;16.00;99.90;;;;;;5080510;28;20044;-67
2021/10/03 01:51:00;;;;;;;2.47;0.98;;;16.00;99.90;;;;;;5053416;28;20460;-67
2021/10/03 01:53:34;;;;;;;1.52;1.00;;;16.00;99.90;;;;;;5070548;28;20426;-67
2021/10/03 01:56:00;;;;;;;2.30;1.00;;;16.00;99.90;;;;;;5073886;28;20042;-67
2021/10/03 01:58:30;;;;;;;2.42;0.93;;;16.00;99.90;;;;;;5054914;28;20286;-67
2021/10/03 02:01:00;;;;;;;2.58;1.00;;;16.00;99.90;;;;;;5078236;28;20044;-67
2021/10/03 02:03:26;;;;;;;1.48;0.80;;;16.00;99.90;;;;;;5077431;28;20040;-67
2021/10/03 02:05:52;;;;;;;2.35;1.13;;;16.00;99.90;;;;;;5058760;28;20063;-67
2021/10/03 02:08:18;;;;;;;1.98;1.23;;;16.00;99.90;;;;;;5077869;28;20028;-67
2021/10/03 02:10:48;;;;;;;3.22;1.17;;;16.00;99.90;;;;;;5060541;28;20054;-67
2021/10/03 02:13:14;;;;;;;2.55;1.05;;;16.00;99.90;;;;;;5069233;28;20507;-67
2021/10/03 02:15:43;;;;;;;2.85;1.30;;;16.00;99.90;;;;;;5082012;28;20032;-67
2021/10/03 02:18:11;;;;;;;5.72;1.00;;;16.00;99.90;;;;;;5074807;28;23025;-67
2021/10/03 02:20:37;;;;;;;2.75;1.20;;;16.00;99.90;;;;;;5067843;28;20063;-67
2021/10/03 02:23:06;;;;;;;3.38;1.00;;;16.00;99.90;;;;;;5075951;28;20055;-67
2021/10/03 02:25:31;;;;;;;4.80;1.45;;;16.00;99.90;;;;;;5098449;28;20143;-67
2021/10/03 02:27:57;;;;;;;1.40;0.73;;;16.00;99.90;;;;;;5066459;28;20178;-67
2021/10/03 02:30:23;;;;;;;2.03;0.77;;;16.00;99.90;;;;;;5087730;28;20063;-67
2021/10/03 02:32:49;;;;;;;2.55;1.00;;;16.10;99.90;;;;;;5076974;28;20132;-67
2021/10/03 02:35:16;;;;;;;2.05;1.02;;;16.10;99.90;;;;;;5091023;28;20067;-67
2021/10/03 02:37:43;;;;;;;2.40;0.65;;;16.10;99.90;;;;;;5070366;28;20152;-67
2021/10/03 02:40:13;;;;;;;2.80;0.63;;;16.10;99.90;;;;;;5053388;28;20059;-67
2021/10/03 02:42:39;;;;;;;1.15;0.80;;;16.10;99.90;;;;;;5062218;28;20048;-67
2021/10/03 02:45:08;;;;;;;1.70;1.05;;;16.10;99.90;;;;;;5073245;28;20507;-68
2021/10/03 02:47:35;;;;;;;3.00;0.98;;;16.10;99.90;;;;;;5070613;28;20044;-68
2021/10/03 02:50:02;;;;;;;1.25;0.68;;;16.10;99.90;;;;;;5083995;28;20045;-68
2021/10/03 02:52:27;;;;;;;0.75;0.55;;;16.10;99.90;;;;;;5081657;28;20047;-68
2021/10/03 02:54:53;;;;;;;1.40;0.80;;;16.10;99.90;;;;;;5069764;28;20036;-68
2021/10/03 02:57:19;;;;;;;1.67;0.85;;;16.10;99.90;;;;;;5071833;28;20035;-68
2021/10/03 02:59:45;;;;;;;2.15;0.60;;;16.10;99.90;;;;;;5071771;28;20178;-68
2021/10/03 03:02:10;;;;;;;2.05;0.70;;;16.10;99.90;;;;;;5077299;28;20032;-68
2021/10/03 03:04:36;;;;;;;1.95;0.70;;;16.10;99.90;;;;;;5081732;28;20044;-69
2021/10/03 03:07:02;;;;;;;1.90;0.90;;;16.10;99.90;;;;;;5056787;28;20496;-68
2021/10/03 03:09:27;;;;;;;1.85;1.00;;;16.10;99.90;;;;;;5072098;28;20035;-68
2021/10/03 03:11:53;;;;;;;2.42;0.70;;;16.10;99.90;;;;;;5080039;28;20044;-68
2021/10/03 03:14:19;;;;;;;3.25;0.90;;;16.10;99.90;;;;;;5071048;28;20036;-67
2021/10/03 03:16:51;;;;;;;3.60;1.17;;;16.20;99.90;;;;;;5074901;28;20102;-67
2021/10/03 03:19:17;;;;;;;2.10;0.60;;;16.20;99.90;;;;;;5077894;28;20032;-67
2021/10/03 03:21:44;;;;;;;2.15;0.70;;;16.20;99.90;;;;;;5074352;28;20419;-67
2021/10/03 03:24:10;;;;;;;1.60;0.60;;;16.20;99.90;;;;;;5079095;28;20071;-67
2021/10/03 03:26:36;;;;;;;1.25;0.50;;;16.20;99.90;;;;;;5071747;28;20036;-68
2021/10/03 03:29:03;;;;;;;11.98;1.17;;;16.30;99.90;;;;;;5076656;28;20042;-67
2021/10/03 03:31:29;;;;;;;4.03;0.70;;;16.20;99.90;;;;;;5074577;28;20138;-68
2021/10/03 03:33:54;;;;;;;2.03;0.43;;;16.20;99.90;;;;;;5066344;28;20531;-68
2021/10/03 03:36:20;;;;;;;3.00;0.40;;;16.10;99.90;;;;;;5073414;28;20035;-68
2021/10/03 03:38:46;;;;;;;3.22;0.30;;;16.10;99.90;;;;;;5054907;28;20032;-68
2021/10/03 03:41:13;;;;;;;2.63;0.30;;;16.00;99.90;;;;;;5081365;28;20080;-68
2021/10/03 03:43:40;;;;;;;2.45;0.20;;;15.90;99.90;;;;;;5081758;28;20048;-68
2021/10/03 03:46:06;;;;;;;4.65;0.35;;;15.80;99.90;;;;;;5068897;28;20074;-68
2021/10/03 03:48:32;;;;;;;0.93;0.43;;;15.70;99.90;;;;;;5077404;28;20265;-68
2021/10/03 03:50:58;;;;;;;2.25;0.30;;;15.60;99.90;;;;;;5093054;28;20256;-68
2021/10/03 03:53:24;;;;;;;3.72;0.40;;;15.60;99.90;;;;;;5061440;28;20040;-68
2021/10/03 03:55:50;;;;;;;0.70;0.43;;;15.50;99.90;;;;;;5073150;28;20488;-68
2021/10/03 03:58:16;;;;;;;3.60;0.50;;;15.40;99.90;;;;;;5065154;28;20051;-68
2021/10/03 04:00:41;;;;;;;2.95;0.68;;;15.40;99.90;;;;;;5060601;28;20036;-68
2021/10/03 04:03:07;;;;;;;2.33;0.43;;;15.40;99.90;;;;;;5090065;28;20044;-68
2021/10/03 04:05:33;;;;;;;4.47;0.52;;;15.30;99.90;;;;;;5084148;28;20142;-67
2021/10/03 04:07:59;;;;;;;2.45;0.50;;;15.30;99.90;;;;;;5075254;28;20066;-67
2021/10/03 04:10:25;;;;;;;4.75;0.68;;;15.20;99.90;;;;;;5078421;28;20040;-67
2021/10/03 04:12:51;;;;;;;1.85;0.40;;;15.20;99.90;;;;;;5090137;28;20044;-68
2021/10/03 04:15:16;;;;;;;2.92;0.40;;;15.10;99.90;;;;;;5068319;28;20519;-68
2021/10/03 04:17:42;;;;;;;2.03;0.40;;;15.10;99.90;;;;;;5055851;28;20070;-68
2021/10/03 04:20:08;;;;;;;3.33;0.40;;;15.00;99.90;;;;;;5085009;28;20108;-68
2021/10/03 04:22:34;;;;;;;1.73;0.30;;;15.00;99.90;;;;;;5058220;28;20055;-68
2021/10/03 04:25:00;;;;;;;3.17;0.50;;;14.90;99.90;;;;;;5098033;28;20059;-68
2021/10/03 04:27:26;;;;;;;1.45;0.35;;;14.80;99.90;;;;;;5074660;28;20451;-68
2021/10/03 04:29:52;;;;;;;2.17;0.40;;;14.80;99.90;;;;;;5087869;28;20149;-68
2021/10/03 04:32:17;;;;;;;2.97;0.45;;;14.80;99.90;;;;;;5067978;28;20048;-68
2021/10/03 04:34:43;;;;;;;3.38;0.50;;;14.70;99.90;;;;;;5081666;28;20048;-68
2021/10/03 04:37:09;;;;;;;4.90;0.70;;;14.70;99.90;;;;;;5072106;28;20438;-68
2021/10/03 04:39:36;;;;;;;2.85;0.50;;;14.70;99.90;;;;;;5077375;28;20051;-68
2021/10/03 04:42:02;;;;;;;2.67;0.50;;;14.60;99.90;;;;;;5082608;28;20108;-68
2021/10/03 04:44:28;;;;;;;2.13;0.38;;;14.60;99.90;;;;;;5056690;28;20059;-68
2021/10/03 04:46:54;;;;;;;1.45;0.30;;;14.60;99.90;;;;;;5085814;28;20407;-68
2021/10/03 04:49:20;;;;;;;3.00;0.47;;;14.60;99.90;;;;;;5099135;27;20044;-68
2021/10/03 04:51:45;;;;;;;2.83;0.60;;;14.60;99.90;;;;;;5069758;28;20037;-67
2021/10/03 04:54:11;;;;;;;3.38;0.50;;;14.60;99.90;;;;;;5080152;28;20400;-67
2021/10/03 04:56:37;;;;;;;1.80;0.30;;;14.50;99.90;;;;;;5080857;28;20028;-68
2021/10/03 04:59:02;;;;;;;2.70;0.47;;;14.50;99.90;;;;;;5061989;28;20044;-68
2021/10/03 05:01:28;;;;;;;1.55;0.60;;;14.50;99.90;;;;;;5083937;28;20059;-68
2021/10/03 05:03:53;;;;;;;5.68;0.85;;;14.50;99.90;;;;;;5078779;28;20048;-68
2021/10/03 05:06:19;;;;;;;3.63;0.50;;;14.50;99.90;;;;;;5073736;28;20044;-68
2021/10/03 05:08:45;;;;;;;4.68;1.10;;;14.50;99.90;;;;;;5065714;28;20134;-68
2021/10/03 05:11:11;;;;;;;3.22;0.47;;;14.50;99.90;;;;;;5056601;28;20155;-68
2021/10/03 05:13:36;;;;;;;1.85;0.68;;;14.50;99.90;;;;;;5089549;28;20032;-68
2021/10/03 05:16:02;;;;;;;2.38;0.50;;;14.50;99.90;;;;;;5061963;28;20043;-68
2021/10/03 05:18:28;;;;;;;2.60;0.80;;;14.50;99.90;;;;;;5082975;28;20059;-67
2021/10/03 05:20:54;;;;;;;2.72;0.60;;;14.50;99.90;;;;;;5079770;28;20036;-67
2021/10/03 05:23:20;;;;;;;2.58;0.50;;;14.40;99.90;;;;;;5086795;28;20039;-67
2021/10/03 05:25:46;;;;;;;1.20;0.40;;;14.40;99.90;;;;;;5078222;28;20037;-67
2021/10/03 05:28:11;;;;;;;2.97;0.30;;;14.40;99.90;;;;;;5080908;28;20120;-67
2021/10/03 05:30:37;;;;;;;1.20;0.30;;;14.40;99.90;;;;;;5080618;28;20047;-67
2021/10/03 05:33:03;;;;;;;1.73;0.28;;;14.40;99.90;;;;;;5084610;28;20137;-67
2021/10/03 05:35:29;;;;;;;1.40;0.30;;;14.30;99.90;;;;;;5080083;28;20184;-67
2021/10/03 05:37:54;;;;;;;2.47;0.22;;;14.30;99.90;;;;;;5082415;28;20037;-67
2021/10/03 05:40:20;;;;;;;3.22;0.30;;;14.20;99.90;;;;;;5079101;28;20283;-66
2021/10/03 05:42:46;;;;;;;1.75;0.30;;;14.20;99.90;;;;;;5063267;28;20040;-66
2021/10/03 05:45:11;;;;;;;2.90;0.40;;;14.20;99.90;;;;;;5083836;28;20114;-66
2021/10/03 05:47:38;;;;;;;3.85;0.52;;;14.20;99.90;;;;;;5078080;28;20104;-66
2021/10/03 05:50:05;;;;;;;4.10;0.40;;;14.10;99.90;;;;;;5060863;28;20056;-67
2021/10/03 05:52:31;;;;;;;5.28;0.52;;;14.10;99.90;;;;;;5074379;28;20492;-67
2021/10/03 05:54:57;;;;;;;4.97;0.30;;;14.10;99.90;;;;;;5080148;28;20043;-67
2021/10/03 05:57:22;;;;;;;4.00;0.50;;;14.10;99.90;;;;;;5070227;28;20097;-67
2021/10/03 05:59:48;;;;;;;2.05;0.30;;;14.10;99.90;;;;;;5081795;28;20038;-67
2021/10/03 06:02:14;;;;;;;1.30;0.30;;;14.10;99.90;;;;;;5080115;28;20488;-67
2021/10/03 06:04:39;;;;;;;5.97;0.80;;;14.10;99.90;;;;;;5086416;28;20046;-67
2021/10/03 06:07:05;;;;;;;4.68;0.60;;;14.10;99.90;;;;;;5079033;28;20085;-67
2021/10/03 06:09:31;;;;;;;1.38;0.40;;;14.10;99.90;;;;;;5082912;28;20042;-67
2021/10/03 06:11:56;;;;;;;1.38;0.47;;;14.10;99.90;;;;;;5076140;28;20622;-68
2021/10/03 06:14:22;;;;;;;3.38;0.70;;;14.10;99.90;;;;;;5067660;28;20056;-68
2021/10/03 06:16:48;;;;;;;2.92;0.60;;;14.10;99.90;;;;;;5063642;28;20046;-68
2021/10/03 06:19:15;;;;;;;3.08;0.68;;;14.10;99.90;;;;;;5088389;28;20115;-68
2021/10/03 06:21:40;;;;;;;2.58;0.38;;;14.10;99.90;;;;;;5063626;28;20045;-68
2021/10/03 06:24:08;;;;;;;3.70;0.60;;;14.10;99.90;;;;;;5076430;28;20086;-68
2021/10/03 06:26:34;;;;;;;2.10;0.60;;;14.10;99.90;;;;;;5068789;28;20056;-68
2021/10/03 06:28:59;;;;;;;2.92;0.30;;;14.10;99.90;;;;;;5053899;28;20045;-68
2021/10/03 06:31:25;;;;;;;2.10;0.55;;;14.10;99.90;;;;;;5082466;28;20098;-68
2021/10/03 06:33:51;;;;;;;3.67;0.63;;;14.10;99.90;;;;;;5075257;28;20032;-68
2021/10/03 06:36:17;;;;;;;3.47;0.47;;;14.10;99.90;;;;;;5026033;28;20737;-68
2021/10/03 06:38:42;;;;;;;3.33;0.60;;;14.10;99.90;;;;;;5071803;28;20048;-68
2021/10/03 06:41:08;;;;;;;5.93;1.00;;;14.00;99.90;;;;;;5093732;28;20111;-68
2021/10/03 06:43:38;;;;;;;2.08;0.60;;;14.00;99.90;;;;;;5074317;28;20044;-68
2021/10/03 06:46:05;;;;;;;3.80;0.90;;;14.00;99.90;;;;;;5061522;28;20123;-68
2021/10/03 06:48:32;;;;;;;8.95;0.82;;;14.00;99.90;;;;;;5067234;28;20040;-68
2021/10/03 06:50:58;;;;;;;4.13;0.60;;;14.00;99.90;;;;;;5093056;28;20076;-68
2021/10/03 06:53:25;;;;;;;3.03;0.68;;;14.00;99.90;;;;;;5056846;28;20039;-68
2021/10/03 06:55:51;;;;;;;4.20;0.82;;;14.00;99.90;;;;;;5089908;28;20093;-69
2021/10/03 06:58:16;;;;;;;4.28;0.60;;;14.00;99.90;;;;;;5055293;28;20484;-69
2021/10/03 07:00:42;;;;;;;4.47;0.75;;;13.90;99.90;;;;;;5096167;28;20593;-69
2021/10/03 07:03:08;;;;;;;3.15;0.50;;;13.90;99.90;;;;;;5061722;28;20176;-69
2021/10/03 07:05:34;;;;;;;4.65;0.52;;;13.90;99.90;;;;;;5031281;28;20048;-69
2021/10/03 07:08:00;;;;;;;2.17;0.50;;;13.90;99.90;;;;;;5079968;28;20042;-69
2021/10/03 07:10:26;;;;;;;2.03;0.60;;;13.90;99.90;;;;;;5053013;28;20048;-68
2021/10/03 07:12:52;;;;;;;2.92;0.68;;;13.90;99.90;;;;;;5077186;28;20036;-68
2021/10/03 07:15:18;;;;;;;2.15;0.60;;;13.90;99.90;;;;;;5071637;28;20070;-68
2021/10/03 07:17:43;;;;;;;5.22;0.60;;;13.90;99.90;;;;;;5057888;28;20055;-68
2021/10/03 07:20:09;;;;;;;3.65;0.80;;;13.90;99.90;;;;;;5083601;28;20267;-68
2021/10/03 07:22:35;;;;;;;2.75;0.93;;;13.90;99.90;;;;;;5082826;28;20048;-68
2021/10/03 07:25:01;;;;;;;1.88;0.68;;;13.90;99.90;;;;;;5071203;28;20036;-68
2021/10/03 07:27:27;;;;;;;5.15;1.42;;;13.90;99.90;;;;;;5078354;28;20492;-68
2021/10/03 07:29:54;;;;;;;10.55;2.72;;;13.90;99.90;;;;;;5066141;28;20123;-69
2021/10/03 07:32:20;;;;;;;4.18;1.00;;;13.90;99.90;;;;;;5079729;28;20180;-69
2021/10/03 07:34:46;;;;;;;4.90;2.00;;;13.90;99.90;;;;;;5072376;28;20557;-69
2021/10/03 07:37:12;;;;;;;6.72;1.95;;;13.90;99.90;;;;;;5094462;28;20132;-69
2021/10/03 07:39:38;;;;;;;6.63;2.47;;;13.90;99.90;;;;;;5086900;28;20040;-69
2021/10/03 07:42:05;;;;;;;5.20;2.15;;;13.90;99.90;;;;;;5060455;28;20063;-68
2021/10/03 07:44:30;;;;;;;8.57;3.45;;;13.90;99.90;;;;;;5080290;28;20079;-68
2021/10/03 07:46:56;;;;;;;8.93;3.35;;;13.90;99.90;;;;;;5067671;28;20087;-68
2021/10/03 07:49:22;;;;;;;5.40;1.85;;;13.90;99.90;;;;;;5079816;28;20033;-68
2021/10/03 07:51:48;;;;;;;4.47;2.28;;;13.90;99.90;;;;;;5073987;28;20507;-68
2021/10/03 07:54:13;;;;;;;5.35;2.50;;;13.90;99.90;;;;;;5055488;28;20044;-68
2021/10/03 07:56:39;;;;;;;4.90;2.72;;;13.90;99.90;;;;;;5072181;28;20068;-68
2021/10/03 07:59:05;;;;;;;3.35;2.33;;;14.00;99.90;;;;;;5060902;28;20048;-68
2021/10/03 08:01:31;;;;;;;6.60;2.42;;;14.00;99.90;;;;;;5084118;28;20056;-69
2021/10/03 08:03:57;;;;;;;3.78;1.50;;;14.00;99.90;;;;;;5095333;28;20109;-69
2021/10/03 08:06:23;;;;;;;2.20;1.20;;;14.00;99.90;;;;;;5068049;28;20217;-69
2021/10/03 08:08:49;;;;;;;3.90;1.30;;;14.00;99.90;;;;;;5081207;28;20123;-69
2021/10/03 08:11:15;;;;;;;3.33;0.82;;;14.10;99.90;;;;;;5073127;28;20044;-69
2021/10/03 08:13:41;;;;;;;2.55;0.95;;;14.00;99.90;;;;;;5076229;28;20036;-68
2021/10/03 08:16:08;;;;;;;1.88;0.95;;;14.10;99.90;;;;;;5061110;28;20055;-69
2021/10/03 08:18:35;;;;;;;1.73;0.80;;;14.00;99.90;;;;;;5081975;28;20076;-69
2021/10/03 08:21:01;;;;;;;3.88;1.23;;;14.10;99.90;;;;;;5089941;28;20116;-69
2021/10/03 08:23:26;;;;;;;2.83;1.10;;;14.10;99.90;;;;;;5064406;28;20118;-69
2021/10/03 08:25:52;;;;;;;1.80;1.00;;;14.10;99.90;;;;;;5063545;28;20044;-68
2021/10/03 08:28:18;;;;;;;8.85;8.00;;;14.10;99.90;;;;;;5056934;28;20365;-68
2021/10/03 08:30:44;;;;;;;110.63;98.82;;;14.10;99.90;;;;;;5088718;28;20064;-68
2021/10/03 08:33:10;;;;;;;2.05;1.48;;;14.10;99.90;;;;;;5073762;28;20189;-68
2021/10/03 08:35:36;;;;;;;1.15;0.65;;;14.10;99.90;;;;;;5091580;28;20078;-68
2021/10/03 08:38:03;;;;;;;2.15;0.45;;;14.10;99.90;;;;;;5074631;28;20033;-68
2021/10/03 08:40:29;;;;;;;0.77;0.40;;;14.10;99.90;;;;;;5076477;28;20037;-68
2021/10/03 08:42:55;;;;;;;2.10;0.30;;;14.10;99.90;;;;;;5086277;28;20052;-68
2021/10/03 08:45:21;;;;;;;1.25;0.38;;;14.10;99.90;;;;;;5090329;28;20052;-68
2021/10/03 08:47:47;;;;;;;1.42;0.40;;;14.10;99.90;;;;;;5068379;28;20102;-68
2021/10/03 08:50:16;;;;;;;0.82;0.30;;;14.10;99.90;;;;;;5094581;28;20166;-68
2021/10/03 08:52:44;;;;;;;0.73;0.30;;;14.10;99.90;;;;;;5076525;28;20484;-68
2021/10/03 08:55:12;;;;;;;1.00;0.43;;;14.20;99.90;;;;;;5082484;28;20028;-68
2021/10/03 08:57:38;;;;;;;2.22;0.60;;;14.10;99.90;;;;;;5073107;28;20374;-68
2021/10/03 09:00:08;;;;;;;1.17;0.30;;;14.10;99.90;;;;;;5080931;28;20488;-68
2021/10/03 09:03:06;;;;;;;3.05;0.35;;;14.20;99.90;;;;;;5078566;28;20985;-68
2021/10/03 09:05:33;;;;;;;1.15;0.30;;;14.20;99.90;;;;;;5076254;28;20199;-68
2021/10/03 09:08:14;;;;;;;1.20;0.40;;;14.20;99.90;;;;;;5089686;28;20082;-68
2021/10/03 09:11:03;;;;;;;2.30;0.40;;;14.20;99.90;;;;;;5059111;28;20425;-68
2021/10/03 09:13:32;;;;;;;134.18;119.80;;;14.20;99.90;;;;;;5073542;28;20076;-68
2021/10/03 09:16:25;;;;;;;2.28;0.63;;;14.20;99.90;;;;;;5085621;28;20484;-68
2021/10/03 09:18:54;;;;;;;0.43;0.13;;;14.20;99.90;;;;;;5070785;28;20035;-68
2021/10/03 09:21:29;;;;;;;1.85;0.20;;;14.00;99.90;;;;;;5087683;28;20098;-68
2021/10/03 09:23:59;;;;;;;0.55;0.10;;;13.90;99.90;;;;;;5077624;28;20531;-68
2021/10/03 09:26:25;;;;;;;1.33;0.10;;;13.70;99.90;;;;;;5090081;28;20071;-68
2021/10/03 09:28:51;;;;;;;1.17;0.25;;;13.60;99.90;;;;;;5074192;28;20040;-68
2021/10/03 09:31:17;;;;;;;1.17;0.20;;;13.60;99.90;;;;;;5052882;28;20434;-68
2021/10/03 09:33:56;;;;;;;1.75;0.30;;;13.60;99.90;;;;;;5092199;28;20062;-68
2021/10/03 09:36:33;;;;;;;2.05;0.38;;;13.50;99.90;;;;;;5054693;28;20044;-68
2021/10/03 09:39:01;;;;;;;0.63;0.20;;;13.50;99.90;;;;;;5092850;28;20043;-67
2021/10/03 09:41:32;;;;;;;3.15;0.55;;;13.50;99.90;;;;;;5081210;28;20047;-67
2021/10/03 09:44:00;;;;;;;0.85;0.20;;;13.50;99.90;;;;;;5081008;28;20045;-67
2021/10/03 09:46:35;;;;;;;1.88;0.40;;;13.40;99.90;;;;;;5072731;28;20119;-68
2021/10/03 09:49:03;;;;;;;0.82;0.40;;;13.40;99.90;;;;;;5077281;28;20036;-68
2021/10/03 09:51:29;;;;;;;0.95;0.30;;;13.40;99.90;;;;;;5072810;28;20424;-67
2021/10/03 09:53:55;;;;;;;1.67;0.30;;;13.40;99.90;;;;;;5080431;28;20043;-67
2021/10/03 09:56:21;;;;;;;3.08;0.20;;;13.40;99.90;;;;;;5074097;28;20089;-67
2021/10/03 09:58:47;;;;;;;1.63;0.20;;;13.40;99.90;;;;;;5073713;28;20348;-67
2021/10/03 10:01:16;;;;;;;2.90;0.40;;;13.30;99.90;;;;;;5074431;28;20064;-67
2021/10/03 10:03:43;;;;;;;1.75;0.52;;;13.30;99.90;;;;;;5076311;28;20048;-67
2021/10/03 10:06:08;;;;;;;2.33;0.22;;;13.40;99.90;;;;;;5054301;28;20044;-67
2021/10/03 10:08:37;;;;;;;1.80;0.35;;;13.30;99.90;;;;;;5071794;28;20396;-67
2021/10/03 10:11:18;;;;;;;1.05;0.30;;;13.40;99.90;;;;;;5074697;28;20035;-67
2021/10/03 10:13:55;;;;;;;1.48;0.30;;;13.40;99.90;;;;;;5079878;28;20041;-67
2021/10/03 10:16:35;;;;;;;1.58;0.75;;;13.30;99.90;;;;;;5051377;28;20071;-67
2021/10/03 10:19:33;;;;;;;1.73;0.50;;;13.40;99.90;;;;;;5073606;28;20404;-67
2021/10/03 10:22:19;;;;;;;0.70;0.20;;;13.30;99.90;;;;;;5073018;28;20048;-67
2021/10/03 10:24:47;;;;;;;2.03;0.38;;;13.30;99.90;;;;;;5074909;28;20508;-67
2021/10/03 10:27:36;;;;;;;2.42;0.40;;;13.30;99.90;;;;;;5077449;28;20118;-67
2021/10/03 10:30:11;;;;;;;14.75;10.43;;;13.30;99.90;;;;;;5049461;28;20052;-67
2021/10/03 10:33:02;;;;;;;1.90;0.30;;;13.30;99.90;;;;;;5072283;28;20071;-67
2021/10/03 10:35:29;;;;;;;2.53;0.50;;;13.30;99.90;;;;;;5073971;28;20120;-67
2021/10/03 10:37:55;;;;;;;2.05;0.50;;;13.30;99.90;;;;;;5089436;28;20388;-67
2021/10/03 10:40:20;;;;;;;7.22;1.30;;;13.30;99.90;;;;;;5084210;28;20410;-67
2021/10/03 10:43:19;;;;;;;2.95;0.80;;;13.30;99.90;;;;;;5068442;28;20052;-67
2021/10/03 10:45:46;;;;;;;1.55;0.70;;;13.30;99.90;;;;;;5057670;28;20500;-66
2021/10/03 10:48:16;;;;;;;3.38;1.40;;;13.30;99.90;;;;;;5091975;28;20123;-66
2021/10/03 10:51:10;;;;;;;1.08;0.50;;;13.40;99.90;;;;;;5082588;28;20036;-66
2021/10/03 10:53:35;;;;;;;5.30;3.57;;;13.40;99.90;;;;;;5084776;28;20048;-67
2021/10/03 10:56:11;;;;;;;4.22;1.90;;;13.40;99.90;;;;;;5054284;28;20024;-67
2021/10/03 10:59:02;;;;;;;1.08;0.60;;;13.30;99.90;;;;;;5080859;28;20036;-67
2021/10/03 11:01:30;;;;;;;1.83;0.50;;;13.40;99.90;;;;;;5082066;28;20518;-67
2021/10/03 11:04:06;;;;;;;3.83;1.70;;;13.40;99.90;;;;;;5069332;28;20515;-67
2021/10/03 11:06:32;;;;;;;2.38;1.08;;;13.40;99.90;;;;;;5072908;28;20090;-67
2021/10/03 11:09:00;;;;;;;1.30;0.70;;;13.40;99.90;;;;;;5070807;28;20453;-67
2021/10/03 11:11:29;;;;;;;3.03;1.00;;;13.50;99.90;;;;;;5085991;28;20040;-67
2021/10/03 11:13:57;;;;;;;2.63;0.90;;;13.50;99.90;;;;;;5076287;28;20063;-67
2021/10/03 11:16:31;;;;;;;3.05;0.63;;;13.50;99.90;;;;;;5088346;28;20127;-67
2021/10/03 11:19:22;;;;;;;2.35;0.35;;;13.40;99.90;;;;;;5079995;28;20432;-67
2021/10/03 11:21:50;;;;;;;2.30;0.25;;;13.40;99.90;;;;;;5068511;28;20055;-67
2021/10/03 11:24:20;;;;;;;1.25;0.30;;;13.40;99.90;;;;;;5068734;28;20072;-67
2021/10/03 11:26:52;;;;;;;2.00;0.50;;;13.40;99.90;;;;;;5087188;28;20036;-67
2021/10/03 11:29:20;;;;;;;27.25;17.30;;;13.50;99.90;;;;;;5046676;28;20044;-67
2021/10/03 11:31:49;;;;;;;0.73;0.35;;;13.50;99.90;;;;;;5073842;28;20151;-67
2021/10/03 11:34:47;;;;;;;2.53;0.30;;;13.50;99.90;;;;;;5069094;28;20516;-67
2021/10/03 11:37:41;;;;;;;1.23;0.20;;;13.50;99.90;;;;;;5056597;28;20036;-67
2021/10/03 11:40:11;;;;;;;2.92;0.30;;;13.50;99.90;;;;;;5067884;28;20459;-67
2021/10/03 11:42:47;;;;;;;1.38;0.15;;;13.60;99.90;;;;;;5079905;28;20040;-66
2021/10/03 11:45:23;;;;;;;1.10;0.20;;;13.60;99.90;;;;;;5074940;28;20032;-66
2021/10/03 11:48:02;;;;;;;0.70;0.20;;;13.60;99.90;;;;;;5080437;28;20036;-66
2021/10/03 11:50:40;;;;;;;1.02;0.20;;;13.70;99.90;;;;;;5069728;28;20208;-66
2021/10/03 11:53:18;;;;;;;0.80;0.13;;;13.60;99.90;;;;;;5071515;28;20527;-66
2021/10/03 11:55:50;;;;;;;0.32;0.10;;;13.60;99.90;;;;;;5067902;28;20048;-66
2021/10/03 11:58:18;;;;;;;0.35;0.15;;;13.70;99.90;;;;;;5088770;28;20377;-66
2021/10/03 12:01:05;;;;;;;3.30;0.50;;;13.70;99.90;;;;;;5069568;28;20046;-66
2021/10/03 12:03:50;;;;;;;2.40;0.57;;;13.70;99.90;;;;;;5084707;28;20518;-66
2021/10/03 12:06:32;;;;;;;12.05;10.07;;;13.70;99.90;;;;;;5053369;28;20713;-66
2021/10/03 12:09:08;;;;;;;2.72;0.80;;;13.60;99.90;;;;;;5075324;28;20059;-66
2021/10/03 12:11:49;;;;;;;1.85;0.40;;;13.60;99.90;;;;;;5067475;28;20036;-66
2021/10/03 12:14:15;;;;;;;2.03;0.57;;;13.60;99.90;;;;;;5072611;28;20032;-66
2021/10/03 12:16:53;;;;;;;2.08;0.45;;;13.60;99.90;;;;;;5066131;28;20480;-66
2021/10/03 12:19:19;;;;;;;3.42;0.30;;;13.60;99.90;;;;;;5073499;28;20075;-66
2021/10/03 12:21:44;;;;;;;2.85;0.40;;;13.60;99.90;;;;;;5072006;28;20047;-66
2021/10/03 12:24:11;;;;;;;1.33;0.30;;;13.60;99.90;;;;;;5084459;28;20052;-66
2021/10/03 12:26:43;;;;;;;2.15;0.80;;;13.70;99.90;;;;;;5070462;28;20052;-65
2021/10/03 12:29:13;;;;;;;2.47;1.35;;;13.70;99.90;;;;;;5075309;28;20135;-65
2021/10/03 12:31:54;;;;;;;1.65;0.73;;;13.70;99.90;;;;;;5067782;28;20048;-65
2021/10/03 12:34:31;;;;;;;1.30;0.32;;;13.80;99.90;;;;;;5073525;28;20052;-65
2021/10/03 12:37:00;;;;;;;1.83;0.40;;;13.90;99.90;;;;;;5065123;28;20037;-65
2021/10/03 12:39:52;;;;;;;2.83;0.40;;;13.90;99.90;;;;;;5074396;28;20118;-65
2021/10/03 12:42:21;;;;;;;1.25;0.40;;;14.00;99.90;;;;;;5067909;28;20109;-66
2021/10/03 12:44:49;;;;;;;1.75;0.40;;;14.00;99.90;;;;;;5074238;28;20191;-66
2021/10/03 12:47:15;;;;;;;1.52;0.70;;;14.10;99.90;;;;;;5049857;28;20033;-66
2021/10/03 12:49:42;;;;;;;1.02;0.65;;;14.10;99.90;;;;;;5074153;28;20083;-66
2021/10/03 12:52:09;;;;;;;2.67;0.70;;;14.10;99.90;;;;;;5074610;28;20044;-66